SARL/AOL METAR and TAF weather

Enter ICAO airport designator
Station Type Date Time Source
SARL METAR 2019/04/25 08:00 UTC NOAA

SARL 250800Z 14016KT 5000 -TSRA OVC035 FEW045CB 20/19 Q1015


Station Type Date Time Source
SARL Decoded METAR 2019/04/25 08:00 UTC NOAA

Paso De Los Libres Aerodrome, Argentina (SARL) 29-41S 057-09W 70M
Apr 25, 2019 - 04:00 AM EDT / 2019.04.25 0800 UTC
Wind: from the SE (140 degrees) at 18 MPH (16 KT):0
Visibility: 3 mile(s):0
Sky conditions: overcast
Weather: light rain with thunder; Cumulonimbus clouds observed
Temperature: 68 F (20 C)
Dew Point: 66 F (19 C)
Relative Humidity: 93%
Pressure (altimeter): 29.97 in. Hg (1015 hPa)
ob: SARL 250800Z 14016KT 5000 -TSRA OVC035 FEW045CB 20/19 Q1015
cycle: 8

Station Type Date Time Source
SARL TAF UTC NOAA

Error!

Example: see airport list